Time;durP1;ratioP1;P1;durP2;ratioP2;P2;SDS_P1;SDS_P2;PMS_P1;PMS_P2;Temp;Humidity;BMP_temperature;BMP_pressure;BME280_temperature;BME280_humidity;BME280_pressure;Samples;Min_cycle;Max_cycle;Signal;HPM_P1;HPM_P2
2021/01/03 00:01:48;;;;;;;44.03;16.55;;;5.70;99.90;;;;;;5014120;28;20062;-86
2021/01/03 00:04:15;;;;;;;48.17;16.85;;;5.70;99.90;;;;;;5017721;28;20034;-86
2021/01/03 00:06:41;;;;;;;42.87;17.80;;;5.50;99.90;;;;;;5034776;28;20025;-86
2021/01/03 00:09:08;;;;;;;42.03;15.93;;;5.40;99.90;;;;;;5035010;28;20083;-85
2021/01/03 00:11:37;;;;;;;40.67;15.77;;;5.40;99.90;;;;;;5031093;28;20042;-85
2021/01/03 00:14:07;;;;;;;33.90;13.73;;;5.40;99.90;;;;;;5016216;28;20037;-87
2021/01/03 00:16:34;;;;;;;36.38;15.43;;;5.40;99.90;;;;;;5033585;28;20044;-85
2021/01/03 00:18:59;;;;;;;47.58;15.73;;;5.50;99.90;;;;;;5034530;28;20038;-83
2021/01/03 00:21:25;;;;;;;49.97;17.15;;;5.50;99.90;;;;;;5011998;28;20052;-82
2021/01/03 00:23:51;;;;;;;45.00;17.85;;;5.50;99.90;;;;;;5018680;28;20124;-81
2021/01/03 00:26:16;;;;;;;47.70;17.90;;;5.50;99.90;;;;;;5014684;28;20022;-82
2021/01/03 00:28:42;;;;;;;43.47;17.15;;;5.50;99.90;;;;;;5025529;28;20034;-81
2021/01/03 00:31:09;;;;;;;51.45;17.58;;;5.40;99.90;;;;;;5034178;28;20120;-81
2021/01/03 00:33:34;;;;;;;52.60;17.83;;;5.40;99.90;;;;;;5034495;28;20124;-81
2021/01/03 00:36:00;;;;;;;49.05;16.67;;;5.40;99.90;;;;;;5031624;28;20041;-81
2021/01/03 00:38:29;;;;;;;59.17;17.88;;;5.20;99.90;;;;;;5016340;28;20441;-80
2021/01/03 00:40:55;;;;;;;57.67;18.75;;;5.20;99.90;;;;;;5017127;28;20029;-81
2021/01/03 00:43:20;;;;;;;52.83;17.50;;;5.10;99.90;;;;;;5017182;28;20030;-80
2021/01/03 00:45:46;;;;;;;54.10;18.33;;;5.10;99.90;;;;;;5016640;28;20080;-81
2021/01/03 00:48:12;;;;;;;42.88;15.20;;;5.10;99.90;;;;;;5015943;28;20386;-80
2021/01/03 00:50:39;;;;;;;44.35;16.15;;;5.10;99.90;;;;;;5011801;28;20088;-81
2021/01/03 00:53:04;;;;;;;46.38;16.80;;;5.10;99.90;;;;;;5015238;28;20395;-79
2021/01/03 00:55:30;;;;;;;42.30;14.88;;;5.10;99.90;;;;;;5016889;28;20029;-81
2021/01/03 00:57:56;;;;;;;43.20;14.60;;;5.00;99.90;;;;;;5017461;28;20026;-82
2021/01/03 01:00:24;;;;;;;50.10;16.08;;;5.10;99.90;;;;;;5019458;28;20458;-83
2021/01/03 01:02:50;;;;;;;54.47;17.73;;;5.10;99.90;;;;;;5019834;28;20041;-82
2021/01/03 01:05:17;;;;;;;48.42;17.65;;;5.10;99.90;;;;;;5025425;28;20025;-82
2021/01/03 01:07:42;;;;;;;44.63;15.55;;;5.10;99.90;;;;;;5037097;28;20014;-82
2021/01/03 01:10:12;;;;;;;51.20;16.42;;;5.10;99.90;;;;;;5037360;28;20041;-80
2021/01/03 01:12:38;;;;;;;44.80;15.48;;;5.10;99.90;;;;;;5039593;28;20073;-80
2021/01/03 01:15:06;;;;;;;43.15;16.20;;;5.00;99.90;;;;;;5037770;28;20103;-80
2021/01/03 01:17:32;;;;;;;41.33;15.68;;;5.00;99.90;;;;;;5038602;28;20065;-80
2021/01/03 01:19:58;;;;;;;46.13;17.00;;;5.10;99.90;;;;;;5036824;28;20045;-80
2021/01/03 01:22:23;;;;;;;49.17;15.98;;;5.20;99.90;;;;;;5025871;28;20482;-81
2021/01/03 01:24:49;;;;;;;49.70;17.95;;;5.20;99.90;;;;;;5010660;28;20099;-83
2021/01/03 01:27:15;;;;;;;39.65;16.10;;;5.10;99.90;;;;;;5016980;28;20022;-80
2021/01/03 01:29:40;;;;;;;37.78;14.82;;;5.00;99.90;;;;;;5014811;28;20064;-80
2021/01/03 01:32:06;;;;;;;42.35;15.98;;;5.00;99.90;;;;;;5015214;28;20037;-82
2021/01/03 01:34:32;;;;;;;39.95;15.68;;;5.00;99.90;;;;;;5015914;28;20053;-81
2021/01/03 01:36:58;;;;;;;45.10;16.98;;;4.90;99.90;;;;;;5015973;28;20093;-81
2021/01/03 01:39:23;;;;;;;43.97;14.68;;;4.90;99.90;;;;;;4996498;28;20076;-81
2021/01/03 01:41:49;;;;;;;46.80;16.73;;;4.90;99.90;;;;;;5014401;28;20026;-81
2021/01/03 01:44:14;;;;;;;41.83;16.98;;;4.90;99.90;;;;;;5014576;28;20095;-81
2021/01/03 01:46:52;;;;;;;52.13;18.15;;;4.90;99.90;;;;;;5015694;28;20029;-81
2021/01/03 01:49:19;;;;;;;57.40;17.83;;;4.80;99.90;;;;;;5015850;28;20041;-81
2021/01/03 01:51:49;;;;;;;39.10;14.82;;;4.80;99.90;;;;;;5016182;28;20050;-81
2021/01/03 01:54:23;;;;;;;40.88;15.32;;;4.80;99.90;;;;;;5014930;28;20045;-81
2021/01/03 01:57:16;;;;;;;41.80;14.18;;;4.90;99.90;;;;;;5014787;28;20036;-81
2021/01/03 01:59:55;;;;;;;43.67;15.40;;;4.80;99.90;;;;;;5014174;28;20033;-81
2021/01/03 02:02:44;;;;;;;42.40;14.80;;;4.80;99.90;;;;;;5014486;28;20368;-81
2021/01/03 02:05:17;;;;;;;47.42;14.63;;;4.80;99.90;;;;;;5014766;28;20068;-82
2021/01/03 02:08:02;;;;;;;41.55;14.65;;;4.80;99.90;;;;;;5014931;28;20054;-81
2021/01/03 02:10:33;;;;;;;49.20;14.40;;;4.80;99.90;;;;;;5013516;28;20068;-82
2021/01/03 02:13:10;;;;;;;45.58;15.75;;;4.80;99.90;;;;;;5014478;28;20029;-82
2021/01/03 02:15:37;;;;;;;46.00;15.23;;;4.80;99.90;;;;;;5014367;28;20042;-82
2021/01/03 02:18:06;;;;;;;45.08;16.73;;;4.70;99.90;;;;;;5014767;28;20026;-82
2021/01/03 02:20:46;;;;;;;43.67;16.58;;;4.80;99.90;;;;;;5014676;28;20041;-81
2021/01/03 02:23:17;;;;;;;42.05;14.30;;;4.80;99.90;;;;;;5014377;28;20172;-83
2021/01/03 02:25:42;;;;;;;45.17;15.40;;;4.80;99.90;;;;;;5010439;28;20116;-81
2021/01/03 02:28:21;;;;;;;50.83;17.80;;;4.80;99.90;;;;;;5014807;28;20022;-81
2021/01/03 02:30:54;;;;;;;43.00;15.88;;;4.90;99.90;;;;;;5014944;28;20496;-82
2021/01/03 02:33:40;;;;;;;48.45;15.15;;;4.80;99.90;;;;;;5014757;28;20022;-82
2021/01/03 02:36:30;;;;;;;47.15;16.98;;;4.90;99.90;;;;;;5014126;28;20022;-81
2021/01/03 02:39:17;;;;;;;51.40;16.48;;;4.90;99.90;;;;;;5013539;28;20042;-81
2021/01/03 02:41:42;;;;;;;51.42;16.13;;;4.90;99.90;;;;;;5015452;28;20020;-81
2021/01/03 02:44:08;;;;;;;48.72;16.67;;;4.80;99.90;;;;;;5015490;28;20562;-81
2021/01/03 02:46:37;;;;;;;55.40;18.30;;;4.80;99.90;;;;;;5015721;28;20048;-81
2021/01/03 02:49:06;;;;;;;49.30;16.85;;;4.80;99.90;;;;;;5031134;28;20018;-82
2021/01/03 02:51:38;;;;;;;49.80;17.25;;;4.80;99.90;;;;;;5034815;28;20036;-81
2021/01/03 02:54:07;;;;;;;48.60;17.33;;;4.90;99.90;;;;;;5033231;28;20098;-81
2021/01/03 02:56:33;;;;;;;48.63;15.90;;;4.90;99.90;;;;;;5032425;28;20030;-81
2021/01/03 02:58:59;;;;;;;46.45;16.67;;;4.90;99.90;;;;;;5022670;28;20172;-80
2021/01/03 03:01:24;;;;;;;46.40;16.70;;;4.90;99.90;;;;;;5015186;28;20085;-82
2021/01/03 03:03:51;;;;;;;57.15;16.98;;;5.00;99.90;;;;;;5015209;28;20125;-81
2021/01/03 03:06:17;;;;;;;59.83;17.65;;;4.90;99.90;;;;;;5015871;28;20087;-81
2021/01/03 03:08:42;;;;;;;48.83;16.92;;;4.80;99.90;;;;;;5013413;28;20425;-81
2021/01/03 03:11:08;;;;;;;51.42;18.10;;;4.80;99.90;;;;;;5013993;28;20065;-81
2021/01/03 03:13:35;;;;;;;49.05;16.70;;;4.80;99.90;;;;;;5013332;28;20034;-81
2021/01/03 03:16:01;;;;;;;57.58;18.73;;;4.80;99.90;;;;;;5013951;28;20030;-82
2021/01/03 03:18:27;;;;;;;64.68;18.20;;;4.70;99.90;;;;;;5008671;28;20026;-82
2021/01/03 03:20:53;;;;;;;71.55;20.35;;;4.50;99.90;;;;;;5011797;28;20109;-81
2021/01/03 03:23:21;;;;;;;66.60;18.75;;;4.50;99.90;;;;;;5012326;28;20129;-82
2021/01/03 03:25:48;;;;;;;55.00;18.40;;;4.60;99.90;;;;;;5009649;28;20034;-82
2021/01/03 03:28:17;;;;;;;52.90;18.13;;;4.60;99.90;;;;;;5014192;28;20093;-81
2021/01/03 03:30:44;;;;;;;47.58;17.63;;;4.60;99.90;;;;;;5013623;28;20539;-82
2021/01/03 03:33:10;;;;;;;55.30;16.97;;;4.70;99.90;;;;;;5012228;28;20026;-81
2021/01/03 03:35:37;;;;;;;51.30;16.55;;;4.80;99.90;;;;;;5012963;28;20371;-81
2021/01/03 03:38:06;;;;;;;56.33;15.77;;;4.70;99.90;;;;;;5010345;28;20044;-82
2021/01/03 03:40:33;;;;;;;53.20;17.60;;;4.80;99.90;;;;;;5013893;28;20295;-81
2021/01/03 03:42:59;;;;;;;51.97;16.88;;;4.70;99.90;;;;;;5013537;28;20038;-82
2021/01/03 03:45:25;;;;;;;43.47;16.02;;;4.70;99.90;;;;;;5013351;28;20026;-82
2021/01/03 03:47:51;;;;;;;56.10;17.50;;;4.70;99.90;;;;;;5013537;28;20102;-82
2021/01/03 03:50:20;;;;;;;48.90;16.67;;;4.60;99.90;;;;;;5012654;28;20390;-82
2021/01/03 03:52:46;;;;;;;46.35;17.63;;;4.80;99.90;;;;;;5007009;28;20089;-82
2021/01/03 03:55:12;;;;;;;58.35;18.02;;;4.80;99.90;;;;;;5011578;28;20018;-82
2021/01/03 03:57:38;;;;;;;52.67;16.73;;;4.80;99.90;;;;;;5001843;28;20033;-80
2021/01/03 04:00:25;;;;;;;50.08;16.15;;;4.60;99.90;;;;;;5017860;28;20030;-81
2021/01/03 04:02:51;;;;;;;39.95;14.48;;;4.70;99.90;;;;;;5016317;28;20525;-82
2021/01/03 04:05:25;;;;;;;42.38;14.40;;;4.80;99.90;;;;;;5012274;28;20471;-81
2021/01/03 04:07:52;;;;;;;42.55;15.43;;;4.90;99.90;;;;;;5017368;28;20541;-81
2021/01/03 04:10:19;;;;;;;43.42;15.30;;;4.90;99.90;;;;;;5016502;28;20026;-82
2021/01/03 04:12:45;;;;;;;43.47;15.00;;;5.00;99.90;;;;;;5016469;28;20037;-82
2021/01/03 04:15:13;;;;;;;42.92;15.15;;;5.00;99.90;;;;;;5015823;28;20025;-83
2021/01/03 04:17:38;;;;;;;49.47;16.13;;;5.00;99.90;;;;;;5017771;28;20043;-81
2021/01/03 04:20:12;;;;;;;41.15;15.73;;;4.90;99.90;;;;;;5012146;28;20026;-81
2021/01/03 04:22:37;;;;;;;43.38;14.85;;;5.00;99.90;;;;;;4999531;28;20065;-81
2021/01/03 04:25:04;;;;;;;52.90;17.10;;;4.90;99.90;;;;;;5010888;28;20847;-81
2021/01/03 04:27:29;;;;;;;48.40;18.75;;;4.90;99.90;;;;;;5019768;28;20462;-82
2021/01/03 04:29:56;;;;;;;45.03;14.70;;;4.90;99.90;;;;;;5017680;28;20025;-82
2021/01/03 04:32:22;;;;;;;49.65;15.50;;;4.90;99.90;;;;;;5025981;28;20046;-81
2021/01/03 04:34:48;;;;;;;48.70;15.90;;;4.80;99.90;;;;;;5037893;28;20033;-81
2021/01/03 04:37:18;;;;;;;43.88;15.82;;;4.80;99.90;;;;;;5038687;28;20045;-82
2021/01/03 04:39:43;;;;;;;55.13;17.70;;;4.80;99.90;;;;;;5034811;28;20045;-81
2021/01/03 04:42:19;;;;;;;48.45;16.27;;;4.70;99.90;;;;;;5040184;28;20097;-82
2021/01/03 04:44:52;;;;;;;52.05;16.90;;;4.70;99.90;;;;;;5036692;28;20021;-82
2021/01/03 04:47:33;;;;;;;42.05;15.73;;;4.70;99.90;;;;;;5036981;28;20037;-82
2021/01/03 04:50:17;;;;;;;48.75;17.27;;;4.60;99.90;;;;;;5019653;28;20100;-82
2021/01/03 04:53:21;;;;;;;47.70;15.30;;;4.70;99.90;;;;;;5015624;28;20050;-81
2021/01/03 04:56:00;;;;;;;41.72;14.85;;;4.80;99.90;;;;;;4997708;28;20038;-81
2021/01/03 04:58:39;;;;;;;43.67;15.45;;;4.80;99.90;;;;;;5003751;28;20049;-81
2021/01/03 05:01:33;;;;;;;48.05;17.33;;;4.70;99.90;;;;;;5026329;28;20387;-81
2021/01/03 05:04:29;;;;;;;43.30;15.85;;;4.70;99.90;;;;;;5011199;28;20100;-82
2021/01/03 05:07:01;;;;;;;41.60;14.63;;;4.80;99.90;;;;;;5014430;28;20030;-81
2021/01/03 05:09:27;;;;;;;42.67;14.15;;;4.90;99.90;;;;;;5012122;28;20072;-82
2021/01/03 05:12:25;;;;;;;45.35;16.98;;;4.90;99.90;;;;;;5014933;28;20030;-82
2021/01/03 05:14:59;;;;;;;44.50;14.70;;;5.00;99.90;;;;;;5017143;28;20042;-82
2021/01/03 05:17:24;;;;;;;44.58;15.00;;;4.90;99.90;;;;;;5016182;28;20037;-82
2021/01/03 05:19:51;;;;;;;42.63;15.52;;;4.90;99.90;;;;;;5013046;28;20048;-82
2021/01/03 05:22:30;;;;;;;37.67;14.35;;;4.80;99.90;;;;;;5005022;28;20418;-82
2021/01/03 05:24:58;;;;;;;45.63;13.95;;;4.80;99.90;;;;;;5015000;28;20034;-82
2021/01/03 05:27:24;;;;;;;;;;;4.80;99.90;;;;;;5014681;28;20041;-82
2021/01/03 05:29:50;;;;;;;38.00;14.15;;;4.80;99.90;;;;;;5014098;28;19964;-81
2021/01/03 05:32:33;;;;;;;40.30;13.90;;;4.90;99.90;;;;;;5015277;28;20033;-82
2021/01/03 05:34:59;;;;;;;37.35;14.73;;;4.80;99.90;;;;;;5015713;28;20033;-81
2021/01/03 05:37:32;;;;;;;38.25;14.80;;;4.80;99.90;;;;;;5016050;28;20057;-82
2021/01/03 05:39:58;;;;;;;42.10;15.00;;;4.90;99.90;;;;;;5013091;28;20041;-82
2021/01/03 05:42:37;;;;;;;42.60;15.13;;;4.80;99.90;;;;;;5017416;28;20038;-81
2021/01/03 05:45:10;;;;;;;39.17;15.90;;;4.80;99.90;;;;;;5012724;28;20092;-82
2021/01/03 05:47:39;;;;;;;41.00;14.40;;;4.80;99.90;;;;;;5011158;28;20064;-82
2021/01/03 05:50:23;;;;;;;45.58;15.85;;;4.70;99.90;;;;;;5015260;28;20034;-81
2021/01/03 05:52:59;;;;;;;39.65;14.50;;;4.80;99.90;;;;;;5007725;28;20402;-82
2021/01/03 05:55:29;;;;;;;41.70;14.90;;;4.70;99.90;;;;;;5015146;28;20044;-81
2021/01/03 05:58:23;;;;;;;43.25;15.32;;;4.70;99.90;;;;;;5019303;28;20112;-82
2021/01/03 06:00:50;;;;;;;47.00;16.10;;;4.70;99.90;;;;;;5015819;28;20401;-82
2021/01/03 06:03:24;;;;;;;49.13;16.90;;;4.60;99.90;;;;;;5016810;28;20056;-83
2021/01/03 06:06:01;;;;;;;46.35;15.85;;;4.50;99.90;;;;;;5016992;28;20042;-82
2021/01/03 06:08:29;;;;;;;44.50;16.10;;;4.50;99.90;;;;;;5009466;28;20034;-82
2021/01/03 06:10:59;;;;;;;48.88;16.27;;;4.50;99.90;;;;;;5018574;28;20478;-81
2021/01/03 06:13:26;;;;;;;49.20;15.65;;;4.60;99.90;;;;;;5019493;28;20026;-82
2021/01/03 06:15:59;;;;;;;43.95;15.95;;;4.70;99.90;;;;;;5018822;28;20022;-84
2021/01/03 06:18:49;;;;;;;42.80;15.15;;;4.70;99.90;;;;;;5038655;28;20022;-81
2021/01/03 06:21:26;;;;;;;50.13;17.15;;;4.70;99.90;;;;;;5038537;28;20066;-82
2021/01/03 06:24:10;;;;;;;47.75;17.70;;;4.70;99.90;;;;;;5038705;28;20085;-82
2021/01/03 06:27:04;;;;;;;49.28;17.27;;;4.60;99.90;;;;;;5027601;28;20017;-82
2021/01/03 06:29:41;;;;;;;54.33;16.48;;;4.50;99.90;;;;;;5017023;28;20422;-82
2021/01/03 06:32:29;;;;;;;43.17;16.38;;;4.50;99.90;;;;;;5013253;28;20537;-82
2021/01/03 06:35:13;;;;;;;56.95;17.20;;;4.60;99.90;;;;;;5016124;28;20034;-81
2021/01/03 06:37:50;;;;;;;49.83;17.02;;;4.60;99.90;;;;;;5014791;28;20026;-82
2021/01/03 06:40:27;;;;;;;40.87;13.70;;;4.60;99.90;;;;;;5012258;28;20038;-83
2021/01/03 06:43:17;;;;;;;48.83;17.27;;;4.60;99.90;;;;;;5015791;28;20045;-82
2021/01/03 06:45:50;;;;;;;52.05;17.13;;;4.50;99.90;;;;;;5014613;28;20033;-83
2021/01/03 06:48:44;;;;;;;50.88;17.58;;;4.50;99.90;;;;;;5004087;28;20034;-82
2021/01/03 06:51:28;;;;;;;55.25;18.60;;;4.60;99.90;;;;;;5003700;28;20033;-82
2021/01/03 06:54:19;;;;;;;53.83;18.50;;;4.40;99.90;;;;;;5015820;28;20061;-82
2021/01/03 06:57:29;;;;;;;63.22;20.35;;;4.50;99.90;;;;;;5016219;28;20025;-81
2021/01/03 07:00:21;;;;;;;51.65;18.50;;;4.50;99.90;;;;;;5016811;28;20120;-82
2021/01/03 07:03:20;;;;;;;63.15;20.45;;;4.60;99.90;;;;;;4994732;28;20026;-82
2021/01/03 07:06:03;;;;;;;60.90;19.10;;;4.60;99.90;;;;;;5010580;28;20398;-84
2021/01/03 07:08:39;;;;;;;53.75;19.48;;;4.60;99.90;;;;;;5015029;28;20041;-81
2021/01/03 07:11:43;;;;;;;56.75;19.23;;;4.50;99.90;;;;;;5012397;28;20029;-82
2021/01/03 07:14:22;;;;;;;59.17;19.42;;;4.50;99.90;;;;;;5004016;28;20025;-80
2021/01/03 07:16:56;;;;;;;64.57;20.45;;;4.50;99.90;;;;;;5039728;28;20041;-82
2021/01/03 07:19:30;;;;;;;63.65;18.02;;;4.50;99.90;;;;;;5002703;28;20538;-81
2021/01/03 07:22:11;;;;;;;63.30;20.17;;;4.50;99.90;;;;;;5006029;28;20026;-81
2021/01/03 07:24:52;;;;;;;57.70;19.17;;;4.50;99.90;;;;;;5012313;28;20520;-82
2021/01/03 07:27:33;;;;;;;54.60;19.55;;;4.60;99.90;;;;;;5015607;28;20383;-81
2021/01/03 07:30:05;;;;;;;59.50;19.65;;;4.50;99.90;;;;;;5017022;28;20065;-82
2021/01/03 07:32:33;;;;;;;47.70;18.10;;;4.60;99.90;;;;;;5016606;28;20022;-82
2021/01/03 07:35:06;;;;;;;;;;;4.60;99.90;;;;;;5017208;28;20107;-81
2021/01/03 07:37:33;;;;;;;53.63;18.90;;;4.60;99.90;;;;;;5017673;28;20262;-81
2021/01/03 07:40:08;;;;;;;58.97;20.48;;;4.60;99.90;;;;;;5015721;28;20062;-81
2021/01/03 07:42:36;;;;;;;56.50;19.88;;;4.50;99.90;;;;;;5018195;28;20030;-81
2021/01/03 07:45:12;;;;;;;66.53;20.05;;;4.60;99.90;;;;;;5019587;28;20022;-81
2021/01/03 07:47:50;;;;;;;61.67;19.92;;;4.60;99.90;;;;;;5015723;28;20129;-80
2021/01/03 07:50:15;;;;;;;44.88;18.92;;;4.60;99.90;;;;;;5011742;28;20041;-82
2021/01/03 07:52:41;;;;;;;56.80;20.27;;;4.70;99.90;;;;;;5019491;28;20026;-81
2021/01/03 07:55:30;;;;;;;59.67;18.80;;;4.60;99.90;;;;;;5033392;28;20073;-81
2021/01/03 07:58:20;;;;;;;58.63;17.52;;;4.50;99.90;;;;;;5047196;28;20094;-80
2021/01/03 08:01:00;;;;;;;63.83;20.48;;;4.50;99.90;;;;;;5036733;28;20101;-81
2021/01/03 08:03:26;;;;;;;53.58;18.73;;;4.60;99.90;;;;;;5040677;28;20030;-80
2021/01/03 08:06:03;;;;;;;56.22;18.50;;;4.60;99.90;;;;;;5038614;28;20089;-81
2021/01/03 08:08:29;;;;;;;58.03;17.92;;;4.60;99.90;;;;;;5040807;28;20026;-82
2021/01/03 08:11:18;;;;;;;55.78;18.67;;;4.70;99.90;;;;;;5027188;28;20582;-81
2021/01/03 08:13:47;;;;;;;61.53;20.65;;;4.60;99.90;;;;;;5020230;28;20029;-81
2021/01/03 08:16:24;;;;;;;54.13;18.95;;;4.60;99.90;;;;;;5019012;28;20038;-81
2021/01/03 08:19:05;;;;;;;56.28;19.33;;;4.60;99.90;;;;;;5017514;28;20022;-81
2021/01/03 08:21:40;;;;;;;58.35;20.13;;;4.50;99.90;;;;;;5017857;28;20520;-82
2021/01/03 08:24:16;;;;;;;52.30;18.15;;;4.50;99.90;;;;;;5011763;28;20058;-80
2021/01/03 08:26:52;;;;;;;62.50;19.63;;;4.60;99.90;;;;;;5011964;28;20061;-81
2021/01/03 08:29:39;;;;;;;59.92;21.00;;;4.40;99.90;;;;;;5015577;28;20413;-81
2021/01/03 08:32:10;;;;;;;41.72;13.45;;;4.30;99.90;;;;;;5010442;28;20460;-81
2021/01/03 08:34:42;;;;;;;59.08;20.30;;;4.50;99.90;;;;;;5012706;28;20548;-81
2021/01/03 08:37:34;;;;;;;61.58;20.65;;;4.50;99.90;;;;;;5018461;28;20066;-81
2021/01/03 08:40:28;;;;;;;59.90;19.85;;;4.50;99.90;;;;;;5010124;28;20026;-81
2021/01/03 08:43:08;;;;;;;66.57;21.85;;;4.60;99.90;;;;;;5014128;28;20573;-80
2021/01/03 08:45:38;;;;;;;60.60;20.70;;;4.40;99.90;;;;;;5018006;28;20034;-81
2021/01/03 08:48:06;;;;;;;64.88;21.23;;;4.40;99.90;;;;;;5003212;28;20030;-81
2021/01/03 08:50:35;;;;;;;61.30;20.65;;;4.50;99.90;;;;;;5022225;28;20026;-81
2021/01/03 08:53:05;;;;;;;58.50;22.13;;;4.50;99.90;;;;;;5015864;28;20364;-81
2021/01/03 08:55:42;;;;;;;65.90;21.52;;;4.50;99.90;;;;;;5012723;28;20026;-82
2021/01/03 08:58:15;;;;;;;62.58;20.92;;;4.50;99.90;;;;;;5011013;28;20069;-80
2021/01/03 09:00:43;;;;;;;65.43;20.63;;;4.50;99.90;;;;;;5014816;28;20482;-81
2021/01/03 09:03:20;;;;;;;62.85;20.00;;;4.50;99.90;;;;;;5011967;28;20045;-81
2021/01/03 09:05:48;;;;;;;64.97;21.75;;;4.50;99.90;;;;;;5015581;28;20048;-80
2021/01/03 09:08:31;;;;;;;65.78;21.67;;;4.50;99.90;;;;;;5018896;28;20467;-81
2021/01/03 09:11:12;;;;;;;63.55;20.92;;;4.50;99.90;;;;;;5015016;28;20072;-82
2021/01/03 09:13:52;;;;;;;61.83;20.90;;;4.50;99.90;;;;;;5033877;28;20048;-82
2021/01/03 09:16:32;;;;;;;57.88;21.45;;;4.50;99.90;;;;;;5017857;28;20037;-81
2021/01/03 09:19:19;;;;;;;57.47;21.05;;;4.60;99.90;;;;;;5017246;28;20139;-82
2021/01/03 09:21:50;;;;;;;56.80;20.33;;;4.50;99.90;;;;;;5006594;28;20029;-82
2021/01/03 09:24:22;;;;;;;57.83;21.30;;;4.60;99.90;;;;;;5029210;28;20080;-81
2021/01/03 09:26:48;;;;;;;66.82;20.83;;;4.70;99.90;;;;;;5030357;28;20053;-81
2021/01/03 09:29:22;;;;;;;53.22;20.13;;;4.70;99.90;;;;;;5007230;28;20099;-81
2021/01/03 09:32:12;;;;;;;56.30;20.13;;;4.70;99.90;;;;;;5018065;28;20128;-81
2021/01/03 09:35:06;;;;;;;57.28;20.08;;;4.70;99.90;;;;;;5050112;28;20038;-82
2021/01/03 09:37:36;;;;;;;50.88;18.67;;;4.60;99.90;;;;;;5051915;28;20017;-81
2021/01/03 09:40:20;;;;;;;53.95;19.15;;;4.70;99.90;;;;;;5049211;28;20033;-81
2021/01/03 09:42:45;;;;;;;53.15;18.48;;;4.90;99.90;;;;;;5038899;28;20034;-81
2021/01/03 09:45:24;;;;;;;56.58;18.65;;;4.90;99.90;;;;;;5013540;28;20061;-82
2021/01/03 09:47:50;;;;;;;52.45;19.27;;;4.90;99.90;;;;;;5009676;28;20041;-82
2021/01/03 09:50:40;;;;;;;47.95;19.10;;;5.00;99.90;;;;;;5004950;28;20080;-81
2021/01/03 09:53:29;;;;;;;43.35;17.10;;;5.00;99.90;;;;;;4997151;28;20084;-81
2021/01/03 09:56:29;;;;;;;42.75;16.45;;;5.10;99.90;;;;;;5013682;28;20034;-81
2021/01/03 09:58:55;;;;;;;48.60;16.58;;;5.00;99.90;;;;;;5005643;28;20117;-81
2021/01/03 10:01:31;;;;;;;49.03;18.25;;;5.10;99.90;;;;;;5012700;28;20102;-82
2021/01/03 10:04:24;;;;;;;43.90;16.92;;;5.10;99.90;;;;;;5005920;28;20052;-82
2021/01/03 10:07:15;;;;;;;39.95;16.08;;;5.10;99.90;;;;;;5005194;28;20042;-81
2021/01/03 10:09:52;;;;;;;37.80;14.73;;;5.10;99.90;;;;;;5012206;28;20039;-81
2021/01/03 10:12:29;;;;;;;36.67;14.88;;;5.10;99.90;;;;;;5019434;28;20065;-81
2021/01/03 10:15:04;;;;;;;43.10;15.40;;;5.00;99.90;;;;;;5013687;28;20478;-82
2021/01/03 10:17:30;;;;;;;34.70;13.70;;;5.00;99.90;;;;;;5008868;28;20115;-81
2021/01/03 10:19:57;;;;;;;34.33;13.70;;;5.10;99.90;;;;;;5004162;28;20046;-80
2021/01/03 10:22:35;;;;;;;39.25;14.88;;;5.00;99.90;;;;;;5009537;28;20048;-81
2021/01/03 10:25:03;;;;;;;;;;;5.00;99.90;;;;;;5013940;28;20030;-81
2021/01/03 10:27:30;;;;;;;26.48;12.15;;;5.00;99.90;;;;;;5014727;28;19924;-81
2021/01/03 10:29:55;;;;;;;28.27;12.05;;;5.10;99.90;;;;;;5010838;28;20474;-82
2021/01/03 10:32:22;;;;;;;22.77;12.02;;;5.10;99.90;;;;;;5012288;28;20080;-81
2021/01/03 10:34:47;;;;;;;26.80;12.95;;;5.10;99.90;;;;;;5009344;28;20045;-80
2021/01/03 10:37:13;;;;;;;28.10;10.75;;;5.10;99.90;;;;;;5013987;28;20026;-82
2021/01/03 10:39:39;;;;;;;24.00;10.90;;;5.10;99.90;;;;;;5012618;28;20026;-80
2021/01/03 10:42:07;;;;;;;22.42;11.13;;;5.10;99.90;;;;;;5013966;28;20079;-82
2021/01/03 10:44:32;;;;;;;27.48;11.30;;;5.00;99.90;;;;;;5008866;28;20049;-81
2021/01/03 10:46:58;;;;;;;25.95;11.48;;;5.00;99.90;;;;;;5013906;28;20030;-82
2021/01/03 10:49:24;;;;;;;25.50;11.48;;;4.90;99.90;;;;;;5011805;28;20041;-81
2021/01/03 10:51:50;;;;;;;24.75;10.50;;;4.90;99.90;;;;;;5013234;28;20052;-82
2021/01/03 10:54:21;;;;;;;25.17;10.57;;;4.80;99.90;;;;;;5014277;28;20287;-81
2021/01/03 10:56:49;;;;;;;20.50;9.35;;;4.90;99.90;;;;;;5013603;28;20022;-83
2021/01/03 10:59:15;;;;;;;20.35;8.88;;;4.90;99.90;;;;;;5014540;28;20033;-82
2021/01/03 11:01:41;;;;;;;19.77;9.45;;;4.90;99.90;;;;;;5014344;28;20101;-80
2021/01/03 11:04:08;;;;;;;19.42;8.43;;;5.00;99.90;;;;;;5014403;28;20125;-82
2021/01/03 11:06:39;;;;;;;15.50;8.02;;;5.10;99.90;;;;;;5019097;28;20030;-82
2021/01/03 11:09:08;;;;;;;18.90;7.07;;;5.10;99.90;;;;;;5029893;28;20017;-81
2021/01/03 11:11:36;;;;;;;17.73;7.93;;;5.20;99.90;;;;;;5025897;28;20022;-81
2021/01/03 11:14:12;;;;;;;18.45;8.93;;;5.10;99.90;;;;;;5034576;28;20011;-82
2021/01/03 11:16:41;;;;;;;21.05;9.45;;;5.00;99.90;;;;;;5031085;28;20041;-80
2021/01/03 11:19:08;;;;;;;;;;;4.90;99.90;;;;;;5027456;28;20110;-83
2021/01/03 11:21:37;;;;;;;22.17;9.40;;;4.90;99.90;;;;;;5034086;28;19958;-85
2021/01/03 11:24:04;;;;;;;21.10;9.38;;;5.00;99.90;;;;;;5000934;28;20049;-85
2021/01/03 11:26:40;;;;;;;19.40;9.13;;;4.90;99.90;;;;;;5019513;28;20041;-86
2021/01/03 11:29:06;;;;;;;22.20;9.30;;;5.00;99.90;;;;;;5019314;28;20461;-86
2021/01/03 11:31:38;;;;;;;24.38;10.13;;;5.00;99.90;;;;;;5007051;28;20056;-85
2021/01/03 11:34:06;;;;;;;22.30;10.10;;;4.90;99.90;;;;;;5015818;28;20038;-86
2021/01/03 11:36:32;;;;;;;22.35;8.65;;;4.90;99.90;;;;;;5016138;28;20080;-86
2021/01/03 11:39:08;;;;;;;20.40;9.20;;;4.90;99.90;;;;;;5016351;28;20057;-86
2021/01/03 11:41:35;;;;;;;21.15;10.02;;;4.80;99.90;;;;;;5014534;28;20033;-84
2021/01/03 11:44:01;;;;;;;16.10;8.68;;;4.80;99.90;;;;;;5013186;28;20050;-85
2021/01/03 11:46:27;;;;;;;18.20;8.75;;;4.80;99.90;;;;;;5017918;28;20379;-85
2021/01/03 11:48:53;;;;;;;21.58;8.77;;;4.70;99.90;;;;;;5013602;28;20022;-85
2021/01/03 11:51:19;;;;;;;21.35;8.07;;;4.70;99.90;;;;;;5016677;28;20052;-82
2021/01/03 11:53:44;;;;;;;17.65;9.10;;;4.80;99.90;;;;;;5015342;28;20034;-85
2021/01/03 11:56:10;;;;;;;17.55;8.93;;;4.80;99.90;;;;;;5015419;28;20076;-86
2021/01/03 11:58:36;;;;;;;17.48;7.78;;;4.80;99.90;;;;;;5014736;28;20022;-87
2021/01/03 12:01:02;;;;;;;18.30;8.48;;;4.70;99.90;;;;;;5016063;28;20034;-87
2021/01/03 12:03:28;;;;;;;19.48;8.25;;;4.80;99.90;;;;;;5015195;28;20474;-86
2021/01/03 12:05:54;;;;;;;19.05;8.65;;;4.80;99.90;;;;;;5013743;28;21423;-86
2021/01/03 12:08:19;;;;;;;21.13;9.05;;;4.90;99.90;;;;;;5021484;28;20021;-86
2021/01/03 12:10:45;;;;;;;19.30;9.20;;;5.00;99.90;;;;;;5010718;28;20080;-84
2021/01/03 12:13:11;;;;;;;22.75;9.25;;;5.00;99.90;;;;;;5016431;28;20026;-86
2021/01/03 12:15:38;;;;;;;23.08;8.80;;;5.00;99.90;;;;;;5019500;28;20030;-84
2021/01/03 12:18:04;;;;;;;20.50;8.63;;;5.00;99.90;;;;;;5013963;28;20041;-85
2021/01/03 12:20:29;;;;;;;22.63;8.85;;;5.00;99.90;;;;;;5020385;28;20026;-86
2021/01/03 12:22:55;;;;;;;20.85;9.18;;;4.90;99.90;;;;;;5017502;28;20040;-85
2021/01/03 12:25:21;;;;;;;19.85;9.35;;;5.00;99.90;;;;;;4998437;28;20105;-85
2021/01/03 12:27:47;;;;;;;18.30;8.95;;;5.00;99.90;;;;;;5007379;28;20025;-85
2021/01/03 12:30:14;;;;;;;18.73;8.30;;;5.00;99.90;;;;;;5017437;28;20038;-86
2021/01/03 12:32:40;;;;;;;25.48;9.02;;;5.10;99.90;;;;;;5019026;28;20075;-86
2021/01/03 12:35:08;;;;;;;18.73;8.68;;;5.20;99.90;;;;;;5021619;28;20466;-86
2021/01/03 12:37:38;;;;;;;22.00;8.95;;;5.20;99.90;;;;;;5013898;28;20026;-82
2021/01/03 12:40:09;;;;;;;20.17;9.27;;;5.20;99.90;;;;;;5014505;28;20109;-87
2021/01/03 12:42:36;;;;;;;17.25;8.38;;;5.30;99.90;;;;;;5016503;28;20049;-85
2021/01/03 12:45:03;;;;;;;17.02;7.93;;;5.30;99.90;;;;;;5020383;28;20046;-85
2021/01/03 12:47:32;;;;;;;19.88;8.98;;;5.30;99.90;;;;;;5023090;28;20029;-86
2021/01/03 12:50:00;;;;;;;22.17;9.07;;;5.40;99.90;;;;;;5036735;28;20030;-84
2021/01/03 12:52:26;;;;;;;19.13;8.43;;;5.30;99.90;;;;;;5041740;28;20025;-87
2021/01/03 12:54:53;;;;;;;17.95;7.97;;;5.30;99.90;;;;;;5053585;28;20026;-85
2021/01/03 12:57:20;;;;;;;21.27;8.98;;;5.40;99.90;;;;;;5038358;28;20032;-85
2021/01/03 12:59:45;;;;;;;20.45;7.97;;;5.50;99.90;;;;;;5032790;28;20033;-85
2021/01/03 13:02:12;;;;;;;14.82;7.63;;;5.50;99.90;;;;;;5022748;28;20386;-85
2021/01/03 13:04:37;;;;;;;15.30;7.45;;;5.50;99.90;;;;;;5015662;28;20566;-86
2021/01/03 13:07:03;;;;;;;17.05;7.85;;;5.60;99.90;;;;;;5002331;28;20026;-84